Estación Meteorológica Peña el Pijo (Robertgarden) [ 08/17/18 05:39:33 CEST ]

Fecha Hora Presion(HPa) Temp (°C) Humedad % Rocio (°C) Viento ( m/s) Direccion Lluvia 1Hora(mm) Lluvia 24H(mm) LLuvia Total(mm)
2018-Apr-06 01:01:53 1007.000 9.0 61 1.9         185.44
2018-Apr-06 02:01:42 1006.500 8.6 62 1.7         185.44
2018-Apr-06 03:01:45 1005.600 8.4 64 2.0         185.44
2018-Apr-06 04:03:11 1004.500 8.9 58 1.1         185.44
2018-Apr-06 05:01:52 1004.000 11.5 43 -0.7         185.44
2018-Apr-06 06:01:37 1003.600 9.8 55 1.2         185.44
2018-Apr-06 07:01:40 1003.500 8.3 64 1.9         185.44
2018-Apr-06 08:02:11 1003.700 7.4 68 1.9         185.44
2018-Apr-06 09:01:36 1003.700 7.8 68 2.3         185.44
2018-Apr-06 10:01:32 1003.500 9.8 65 3.5         185.44
2018-Apr-06 11:01:37 1003.200 12.0 63 5.2 0.6 E     185.44
2018-Apr-06 12:01:49 1003.200 14.9 57 6.4         185.44
2018-Apr-06 13:01:54 1003.000 16.2 52 6.3         185.44
2018-Apr-06 14:02:04 1002.200 21.9 42 8.4         185.44
2018-Apr-06 15:01:38 1001.400 20.1 41 6.4         185.44
2018-Apr-06 16:01:40 1000.300 17.9 47 6.3 2.2 E     185.44
2018-Apr-06 17:01:49 999.400 18.9 44 6.3 2.3 SE     185.44
2018-Apr-06 18:01:46 999.300 19.4 40 5.5 0.9 SSE     185.44
2018-Apr-06 19:01:59 999.000 18.8 43 5.9         185.44
2018-Apr-06 20:01:40 999.200 16.8 49 6.0         185.44
2018-Apr-06 21:01:50 999.000 14.4 56 5.7         185.44
2018-Apr-06 22:01:34 1000.300 12.4 63 5.5         185.44
2018-Apr-06 23:01:37 1000.900 11.3 66 5.2         185.44

Temperatura Máxima:21°    Temperatura Mínima:
Presión Máxima:1007.000 Hpa    Presión Mínima:999.000 Hpa


Volver